sensor_id;sensor_type;location;lat;lon;timestamp;P1;durP1;ratioP1;P2;durP2;ratioP2
59788;SDS011;47353;51.614;5.530;2023-03-14T00:00:37;8.07;;;1.80;;
59788;SDS011;47353;51.614;5.530;2023-03-14T00:03:02;5.28;;;1.90;;
59788;SDS011;47353;51.614;5.530;2023-03-14T00:05:28;7.57;;;2.10;;
59788;SDS011;47353;51.614;5.530;2023-03-14T00:07:53;6.07;;;1.63;;
59788;SDS011;47353;51.614;5.530;2023-03-14T00:10:19;4.53;;;1.30;;
59788;SDS011;47353;51.614;5.530;2023-03-14T00:12:45;6.80;;;1.63;;
59788;SDS011;47353;51.614;5.530;2023-03-14T00:15:11;6.43;;;1.55;;
59788;SDS011;47353;51.614;5.530;2023-03-14T00:17:37;8.35;;;1.65;;
59788;SDS011;47353;51.614;5.530;2023-03-14T00:20:03;9.30;;;2.00;;
59788;SDS011;47353;51.614;5.530;2023-03-14T00:22:36;5.65;;;1.70;;
59788;SDS011;47353;51.614;5.530;2023-03-14T00:25:04;9.20;;;1.63;;
59788;SDS011;47353;51.614;5.530;2023-03-14T00:27:31;6.57;;;1.52;;
59788;SDS011;47353;51.614;5.530;2023-03-14T00:29:56;7.43;;;1.40;;
59788;SDS011;47353;51.614;5.530;2023-03-14T00:32:22;6.22;;;1.40;;
59788;SDS011;47353;51.614;5.530;2023-03-14T00:34:48;7.03;;;1.67;;
59788;SDS011;47353;51.614;5.530;2023-03-14T00:37:13;5.18;;;1.48;;
59788;SDS011;47353;51.614;5.530;2023-03-14T00:39:39;5.15;;;1.40;;
59788;SDS011;47353;51.614;5.530;2023-03-14T00:42:04;6.00;;;1.30;;
59788;SDS011;47353;51.614;5.530;2023-03-14T00:44:30;7.03;;;1.52;;
59788;SDS011;47353;51.614;5.530;2023-03-14T00:46:56;8.38;;;1.88;;
59788;SDS011;47353;51.614;5.530;2023-03-14T00:49:22;4.75;;;1.38;;
59788;SDS011;47353;51.614;5.530;2023-03-14T00:51:47;7.05;;;1.42;;
59788;SDS011;47353;51.614;5.530;2023-03-14T00:54:13;6.57;;;1.25;;
59788;SDS011;47353;51.614;5.530;2023-03-14T00:56:38;8.05;;;1.40;;
59788;SDS011;47353;51.614;5.530;2023-03-14T00:59:03;6.25;;;1.40;;
59788;SDS011;47353;51.614;5.530;2023-03-14T01:01:29;4.95;;;1.20;;
59788;SDS011;47353;51.614;5.530;2023-03-14T01:03:55;5.55;;;1.42;;
59788;SDS011;47353;51.614;5.530;2023-03-14T01:06:22;6.60;;;1.63;;
59788;SDS011;47353;51.614;5.530;2023-03-14T01:08:51;8.23;;;1.58;;
59788;SDS011;47353;51.614;5.530;2023-03-14T01:11:18;8.70;;;1.40;;
59788;SDS011;47353;51.614;5.530;2023-03-14T01:13:45;5.90;;;1.40;;
59788;SDS011;47353;51.614;5.530;2023-03-14T01:16:11;6.95;;;1.30;;
59788;SDS011;47353;51.614;5.530;2023-03-14T01:18:39;8.10;;;1.30;;
59788;SDS011;47353;51.614;5.530;2023-03-14T01:21:10;5.07;;;1.30;;
59788;SDS011;47353;51.614;5.530;2023-03-14T01:23:44;6.70;;;1.30;;
59788;SDS011;47353;51.614;5.530;2023-03-14T01:26:11;6.80;;;1.13;;
59788;SDS011;47353;51.614;5.530;2023-03-14T01:28:38;11.38;;;1.95;;
59788;SDS011;47353;51.614;5.530;2023-03-14T01:31:05;8.50;;;1.25;;
59788;SDS011;47353;51.614;5.530;2023-03-14T01:33:32;4.88;;;1.23;;
59788;SDS011;47353;51.614;5.530;2023-03-14T01:35:57;5.35;;;1.20;;
59788;SDS011;47353;51.614;5.530;2023-03-14T01:38:23;7.47;;;1.30;;
59788;SDS011;47353;51.614;5.530;2023-03-14T01:40:48;4.90;;;1.33;;
59788;SDS011;47353;51.614;5.530;2023-03-14T01:43:15;6.05;;;1.20;;
59788;SDS011;47353;51.614;5.530;2023-03-14T01:48:37;8.50;;;1.23;;
59788;SDS011;47353;51.614;5.530;2023-03-14T01:51:14;4.05;;;1.13;;
59788;SDS011;47353;51.614;5.530;2023-03-14T01:53:45;7.00;;;1.38;;
59788;SDS011;47353;51.614;5.530;2023-03-14T01:56:13;5.03;;;1.00;;
59788;SDS011;47353;51.614;5.530;2023-03-14T01:58:41;6.25;;;1.25;;
59788;SDS011;47353;51.614;5.530;2023-03-14T02:01:10;7.70;;;1.17;;
59788;SDS011;47353;51.614;5.530;2023-03-14T02:03:38;5.63;;;1.13;;
59788;SDS011;47353;51.614;5.530;2023-03-14T02:06:12;7.97;;;1.50;;
59788;SDS011;47353;51.614;5.530;2023-03-14T02:08:42;6.15;;;1.20;;
59788;SDS011;47353;51.614;5.530;2023-03-14T02:11:12;6.93;;;1.45;;
59788;SDS011;47353;51.614;5.530;2023-03-14T02:13:38;5.93;;;1.38;;
59788;SDS011;47353;51.614;5.530;2023-03-14T02:16:04;3.25;;;1.08;;
59788;SDS011;47353;51.614;5.530;2023-03-14T02:18:29;6.10;;;1.75;;
59788;SDS011;47353;51.614;5.530;2023-03-14T02:21:10;7.35;;;1.80;;
59788;SDS011;47353;51.614;5.530;2023-03-14T02:26:20;7.93;;;1.92;;
59788;SDS011;47353;51.614;5.530;2023-03-14T02:28:47;10.05;;;1.92;;
59788;SDS011;47353;51.614;5.530;2023-03-14T02:31:13;5.63;;;1.67;;
59788;SDS011;47353;51.614;5.530;2023-03-14T02:33:39;10.07;;;1.85;;
59788;SDS011;47353;51.614;5.530;2023-03-14T02:36:05;8.82;;;1.80;;
59788;SDS011;47353;51.614;5.530;2023-03-14T02:38:47;9.10;;;1.95;;
59788;SDS011;47353;51.614;5.530;2023-03-14T02:41:18;7.22;;;1.65;;
59788;SDS011;47353;51.614;5.530;2023-03-14T02:43:43;8.50;;;1.85;;
59788;SDS011;47353;51.614;5.530;2023-03-14T02:46:13;6.90;;;1.83;;
59788;SDS011;47353;51.614;5.530;2023-03-14T02:51:15;10.02;;;2.28;;
59788;SDS011;47353;51.614;5.530;2023-03-14T02:53:41;9.20;;;1.90;;
59788;SDS011;47353;51.614;5.530;2023-03-14T02:56:08;9.60;;;1.98;;
59788;SDS011;47353;51.614;5.530;2023-03-14T02:58:34;10.20;;;1.70;;
59788;SDS011;47353;51.614;5.530;2023-03-14T03:01:00;9.13;;;1.90;;
59788;SDS011;47353;51.614;5.530;2023-03-14T03:03:25;9.82;;;2.40;;
59788;SDS011;47353;51.614;5.530;2023-03-14T03:05:51;11.70;;;1.85;;
59788;SDS011;47353;51.614;5.530;2023-03-14T03:08:18;10.65;;;1.85;;
59788;SDS011;47353;51.614;5.530;2023-03-14T03:10:45;9.25;;;2.10;;
59788;SDS011;47353;51.614;5.530;2023-03-14T03:13:10;9.05;;;1.67;;
59788;SDS011;47353;51.614;5.530;2023-03-14T03:15:36;9.55;;;1.60;;
59788;SDS011;47353;51.614;5.530;2023-03-14T03:18:01;11.40;;;2.15;;
59788;SDS011;47353;51.614;5.530;2023-03-14T03:20:27;10.88;;;1.77;;
59788;SDS011;47353;51.614;5.530;2023-03-14T03:22:52;10.68;;;1.80;;
59788;SDS011;47353;51.614;5.530;2023-03-14T03:25:18;9.40;;;2.05;;
59788;SDS011;47353;51.614;5.530;2023-03-14T03:27:43;10.10;;;1.90;;
59788;SDS011;47353;51.614;5.530;2023-03-14T03:30:09;8.55;;;1.83;;
59788;SDS011;47353;51.614;5.530;2023-03-14T03:32:35;6.50;;;1.70;;
59788;SDS011;47353;51.614;5.530;2023-03-14T03:35:04;8.18;;;1.80;;
59788;SDS011;47353;51.614;5.530;2023-03-14T03:37:30;5.55;;;1.70;;
59788;SDS011;47353;51.614;5.530;2023-03-14T03:39:56;7.82;;;1.50;;
59788;SDS011;47353;51.614;5.530;2023-03-14T03:42:22;7.97;;;1.60;;
59788;SDS011;47353;51.614;5.530;2023-03-14T03:44:47;11.10;;;1.98;;
59788;SDS011;47353;51.614;5.530;2023-03-14T03:47:13;4.82;;;1.40;;
59788;SDS011;47353;51.614;5.530;2023-03-14T03:49:38;7.90;;;1.58;;
59788;SDS011;47353;51.614;5.530;2023-03-14T03:52:04;7.80;;;1.63;;
59788;SDS011;47353;51.614;5.530;2023-03-14T03:54:29;11.60;;;1.65;;
59788;SDS011;47353;51.614;5.530;2023-03-14T03:56:55;8.18;;;1.52;;
59788;SDS011;47353;51.614;5.530;2023-03-14T03:59:20;9.30;;;1.58;;
59788;SDS011;47353;51.614;5.530;2023-03-14T04:01:46;7.15;;;1.50;;
59788;SDS011;47353;51.614;5.530;2023-03-14T04:04:11;8.80;;;1.58;;
59788;SDS011;47353;51.614;5.530;2023-03-14T04:06:37;6.28;;;1.30;;
59788;SDS011;47353;51.614;5.530;2023-03-14T04:09:02;7.32;;;1.15;;
59788;SDS011;47353;51.614;5.530;2023-03-14T04:11:28;8.75;;;1.50;;
59788;SDS011;47353;51.614;5.530;2023-03-14T04:13:54;7.25;;;1.33;;
59788;SDS011;47353;51.614;5.530;2023-03-14T04:16:20;4.88;;;1.27;;
59788;SDS011;47353;51.614;5.530;2023-03-14T04:18:47;4.85;;;1.40;;
59788;SDS011;47353;51.614;5.530;2023-03-14T04:21:12;9.13;;;1.55;;
59788;SDS011;47353;51.614;5.530;2023-03-14T04:23:38;6.00;;;1.27;;
59788;SDS011;47353;51.614;5.530;2023-03-14T04:26:03;5.93;;;1.05;;
59788;SDS011;47353;51.614;5.530;2023-03-14T04:28:29;3.70;;;1.00;;
59788;SDS011;47353;51.614;5.530;2023-03-14T04:30:55;5.88;;;1.40;;
59788;SDS011;47353;51.614;5.530;2023-03-14T04:33:20;4.13;;;1.25;;
59788;SDS011;47353;51.614;5.530;2023-03-14T04:35:46;4.50;;;1.13;;
59788;SDS011;47353;51.614;5.530;2023-03-14T04:38:12;5.63;;;1.13;;
59788;SDS011;47353;51.614;5.530;2023-03-14T04:40:38;6.93;;;1.38;;
59788;SDS011;47353;51.614;5.530;2023-03-14T04:43:05;11.32;;;1.63;;
59788;SDS011;47353;51.614;5.530;2023-03-14T04:45:31;4.95;;;1.10;;
59788;SDS011;47353;51.614;5.530;2023-03-14T04:47:56;5.35;;;1.30;;
59788;SDS011;47353;51.614;5.530;2023-03-14T04:50:22;9.55;;;1.30;;
59788;SDS011;47353;51.614;5.530;2023-03-14T04:52:47;5.55;;;1.27;;
59788;SDS011;47353;51.614;5.530;2023-03-14T04:55:13;5.30;;;1.38;;
59788;SDS011;47353;51.614;5.530;2023-03-14T04:57:38;5.05;;;1.35;;
59788;SDS011;47353;51.614;5.530;2023-03-14T05:00:04;4.65;;;1.50;;
59788;SDS011;47353;51.614;5.530;2023-03-14T05:02:31;3.38;;;1.10;;
59788;SDS011;47353;51.614;5.530;2023-03-14T05:04:57;3.42;;;1.27;;
59788;SDS011;47353;51.614;5.530;2023-03-14T05:07:22;6.07;;;1.50;;
59788;SDS011;47353;51.614;5.530;2023-03-14T05:09:47;5.07;;;1.20;;
59788;SDS011;47353;51.614;5.530;2023-03-14T05:12:13;6.05;;;1.70;;
59788;SDS011;47353;51.614;5.530;2023-03-14T05:14:38;3.25;;;1.00;;
59788;SDS011;47353;51.614;5.530;2023-03-14T05:17:04;3.78;;;1.25;;
59788;SDS011;47353;51.614;5.530;2023-03-14T05:19:29;4.47;;;1.50;;
59788;SDS011;47353;51.614;5.530;2023-03-14T05:21:55;2.75;;;1.23;;
59788;SDS011;47353;51.614;5.530;2023-03-14T05:24:21;2.40;;;1.30;;
59788;SDS011;47353;51.614;5.530;2023-03-14T05:26:46;6.35;;;1.63;;
59788;SDS011;47353;51.614;5.530;2023-03-14T05:29:11;5.97;;;1.80;;
59788;SDS011;47353;51.614;5.530;2023-03-14T05:31:37;5.57;;;1.95;;
59788;SDS011;47353;51.614;5.530;2023-03-14T05:34:02;5.32;;;1.80;;
59788;SDS011;47353;51.614;5.530;2023-03-14T05:36:28;5.18;;;2.00;;
59788;SDS011;47353;51.614;5.530;2023-03-14T05:38:53;5.30;;;2.25;;
59788;SDS011;47353;51.614;5.530;2023-03-14T05:41:18;9.02;;;2.20;;
59788;SDS011;47353;51.614;5.530;2023-03-14T05:43:44;7.22;;;2.50;;
59788;SDS011;47353;51.614;5.530;2023-03-14T05:46:09;6.85;;;2.22;;
59788;SDS011;47353;51.614;5.530;2023-03-14T05:48:35;5.72;;;2.60;;
59788;SDS011;47353;51.614;5.530;2023-03-14T05:51:00;5.03;;;2.58;;
59788;SDS011;47353;51.614;5.530;2023-03-14T05:53:25;6.75;;;2.90;;
59788;SDS011;47353;51.614;5.530;2023-03-14T05:55:52;6.80;;;3.30;;
59788;SDS011;47353;51.614;5.530;2023-03-14T05:58:18;7.13;;;3.03;;
59788;SDS011;47353;51.614;5.530;2023-03-14T06:00:43;8.07;;;3.15;;
59788;SDS011;47353;51.614;5.530;2023-03-14T06:03:09;7.65;;;3.10;;
59788;SDS011;47353;51.614;5.530;2023-03-14T06:05:34;8.25;;;3.65;;
59788;SDS011;47353;51.614;5.530;2023-03-14T06:07:59;7.90;;;3.05;;
59788;SDS011;47353;51.614;5.530;2023-03-14T06:10:27;5.38;;;2.85;;
59788;SDS011;47353;51.614;5.530;2023-03-14T06:12:53;8.25;;;3.20;;
59788;SDS011;47353;51.614;5.530;2023-03-14T06:15:18;8.52;;;3.28;;
59788;SDS011;47353;51.614;5.530;2023-03-14T06:17:44;6.72;;;2.70;;
59788;SDS011;47353;51.614;5.530;2023-03-14T06:20:09;8.70;;;3.03;;
59788;SDS011;47353;51.614;5.530;2023-03-14T06:22:35;6.72;;;2.95;;
59788;SDS011;47353;51.614;5.530;2023-03-14T06:25:01;6.85;;;3.40;;
59788;SDS011;47353;51.614;5.530;2023-03-14T06:27:26;7.35;;;3.42;;
59788;SDS011;47353;51.614;5.530;2023-03-14T06:29:52;8.98;;;2.95;;
59788;SDS011;47353;51.614;5.530;2023-03-14T06:32:17;5.10;;;2.53;;
59788;SDS011;47353;51.614;5.530;2023-03-14T06:34:43;7.32;;;4.13;;
59788;SDS011;47353;51.614;5.530;2023-03-14T06:37:09;8.82;;;4.13;;
59788;SDS011;47353;51.614;5.530;2023-03-14T06:39:34;6.15;;;3.80;;
59788;SDS011;47353;51.614;5.530;2023-03-14T06:41:59;9.25;;;4.00;;
59788;SDS011;47353;51.614;5.530;2023-03-14T06:44:25;9.52;;;3.97;;
59788;SDS011;47353;51.614;5.530;2023-03-14T06:46:50;7.88;;;4.20;;
59788;SDS011;47353;51.614;5.530;2023-03-14T06:49:15;10.90;;;4.47;;
59788;SDS011;47353;51.614;5.530;2023-03-14T06:51:41;7.25;;;3.85;;
59788;SDS011;47353;51.614;5.530;2023-03-14T06:54:06;7.32;;;3.90;;
59788;SDS011;47353;51.614;5.530;2023-03-14T06:56:32;9.18;;;4.57;;
59788;SDS011;47353;51.614;5.530;2023-03-14T06:58:57;7.57;;;4.05;;
59788;SDS011;47353;51.614;5.530;2023-03-14T07:01:24;7.75;;;3.80;;
59788;SDS011;47353;51.614;5.530;2023-03-14T07:03:51;9.57;;;4.07;;
59788;SDS011;47353;51.614;5.530;2023-03-14T07:06:16;7.47;;;4.55;;
59788;SDS011;47353;51.614;5.530;2023-03-14T07:08:42;8.90;;;4.75;;
59788;SDS011;47353;51.614;5.530;2023-03-14T07:11:08;7.53;;;4.40;;
59788;SDS011;47353;51.614;5.530;2023-03-14T07:13:35;8.27;;;4.00;;
59788;SDS011;47353;51.614;5.530;2023-03-14T07:16:01;10.15;;;4.93;;
59788;SDS011;47353;51.614;5.530;2023-03-14T07:18:27;11.10;;;5.13;;
59788;SDS011;47353;51.614;5.530;2023-03-14T07:20:52;9.77;;;4.75;;
59788;SDS011;47353;51.614;5.530;2023-03-14T07:23:18;12.85;;;5.03;;
59788;SDS011;47353;51.614;5.530;2023-03-14T07:25:43;9.27;;;4.72;;
59788;SDS011;47353;51.614;5.530;2023-03-14T07:28:09;10.60;;;4.30;;
59788;SDS011;47353;51.614;5.530;2023-03-14T07:30:34;4.88;;;2.20;;
59788;SDS011;47353;51.614;5.530;2023-03-14T07:33:00;4.47;;;1.70;;
59788;SDS011;47353;51.614;5.530;2023-03-14T07:35:25;5.80;;;2.10;;
59788;SDS011;47353;51.614;5.530;2023-03-14T07:37:50;7.57;;;2.45;;
59788;SDS011;47353;51.614;5.530;2023-03-14T07:40:16;5.05;;;2.20;;
59788;SDS011;47353;51.614;5.530;2023-03-14T07:42:42;3.83;;;1.60;;
59788;SDS011;47353;51.614;5.530;2023-03-14T07:45:08;4.22;;;1.60;;
59788;SDS011;47353;51.614;5.530;2023-03-14T07:47:35;7.40;;;1.40;;
59788;SDS011;47353;51.614;5.530;2023-03-14T07:50:00;4.75;;;1.52;;
59788;SDS011;47353;51.614;5.530;2023-03-14T07:52:26;3.67;;;1.20;;
59788;SDS011;47353;51.614;5.530;2023-03-14T07:54:51;3.22;;;1.17;;
59788;SDS011;47353;51.614;5.530;2023-03-14T07:57:17;4.07;;;1.52;;
59788;SDS011;47353;51.614;5.530;2023-03-14T07:59:42;3.00;;;1.50;;
59788;SDS011;47353;51.614;5.530;2023-03-14T08:02:11;3.75;;;1.40;;
59788;SDS011;47353;51.614;5.530;2023-03-14T08:04:38;3.92;;;1.60;;
59788;SDS011;47353;51.614;5.530;2023-03-14T08:07:04;2.53;;;1.50;;
59788;SDS011;47353;51.614;5.530;2023-03-14T08:09:30;3.88;;;1.90;;
59788;SDS011;47353;51.614;5.530;2023-03-14T08:11:55;3.95;;;1.80;;
59788;SDS011;47353;51.614;5.530;2023-03-14T08:14:29;4.25;;;2.10;;
59788;SDS011;47353;51.614;5.530;2023-03-14T08:16:56;4.35;;;1.60;;
59788;SDS011;47353;51.614;5.530;2023-03-14T08:19:21;5.22;;;2.10;;
59788;SDS011;47353;51.614;5.530;2023-03-14T08:21:46;7.07;;;2.22;;
59788;SDS011;47353;51.614;5.530;2023-03-14T08:24:12;5.38;;;2.13;;
59788;SDS011;47353;51.614;5.530;2023-03-14T08:26:37;5.53;;;1.98;;
59788;SDS011;47353;51.614;5.530;2023-03-14T08:29:03;5.03;;;2.40;;
59788;SDS011;47353;51.614;5.530;2023-03-14T08:31:29;7.30;;;2.10;;
59788;SDS011;47353;51.614;5.530;2023-03-14T08:33:57;5.55;;;2.20;;
59788;SDS011;47353;51.614;5.530;2023-03-14T08:36:23;10.23;;;2.60;;
59788;SDS011;47353;51.614;5.530;2023-03-14T08:38:49;9.25;;;2.10;;
59788;SDS011;47353;51.614;5.530;2023-03-14T08:41:14;6.50;;;2.03;;
59788;SDS011;47353;51.614;5.530;2023-03-14T08:43:40;11.95;;;2.28;;
59788;SDS011;47353;51.614;5.530;2023-03-14T08:46:05;7.47;;;2.50;;
59788;SDS011;47353;51.614;5.530;2023-03-14T08:48:31;9.68;;;2.60;;
59788;SDS011;47353;51.614;5.530;2023-03-14T08:50:56;4.25;;;1.70;;
59788;SDS011;47353;51.614;5.530;2023-03-14T08:53:28;7.47;;;2.13;;
59788;SDS011;47353;51.614;5.530;2023-03-14T08:55:53;6.35;;;2.00;;
59788;SDS011;47353;51.614;5.530;2023-03-14T08:58:19;5.97;;;2.22;;
59788;SDS011;47353;51.614;5.530;2023-03-14T09:00:44;7.45;;;2.10;;
59788;SDS011;47353;51.614;5.530;2023-03-14T09:03:10;5.82;;;2.28;;
59788;SDS011;47353;51.614;5.530;2023-03-14T09:05:35;6.75;;;1.90;;
59788;SDS011;47353;51.614;5.530;2023-03-14T09:08:01;7.95;;;2.30;;
59788;SDS011;47353;51.614;5.530;2023-03-14T09:10:27;3.30;;;1.60;;
59788;SDS011;47353;51.614;5.530;2023-03-14T09:12:52;5.75;;;1.90;;
59788;SDS011;47353;51.614;5.530;2023-03-14T09:15:18;2.95;;;1.42;;
59788;SDS011;47353;51.614;5.530;2023-03-14T09:17:43;8.27;;;2.28;;
59788;SDS011;47353;51.614;5.530;2023-03-14T09:20:10;7.82;;;2.42;;
59788;SDS011;47353;51.614;5.530;2023-03-14T09:22:36;6.13;;;3.15;;
59788;SDS011;47353;51.614;5.530;2023-03-14T09:25:05;9.23;;;3.20;;
59788;SDS011;47353;51.614;5.530;2023-03-14T09:27:31;6.88;;;2.72;;
59788;SDS011;47353;51.614;5.530;2023-03-14T09:29:56;3.63;;;2.13;;
59788;SDS011;47353;51.614;5.530;2023-03-14T09:32:21;4.72;;;0.90;;
59788;SDS011;47353;51.614;5.530;2023-03-14T09:34:47;5.07;;;0.70;;
59788;SDS011;47353;51.614;5.530;2023-03-14T09:37:12;3.40;;;1.00;;
59788;SDS011;47353;51.614;5.530;2023-03-14T09:39:38;3.67;;;0.80;;
59788;SDS011;47353;51.614;5.530;2023-03-14T09:42:04;1.73;;;0.70;;
59788;SDS011;47353;51.614;5.530;2023-03-14T09:44:33;1.60;;;0.63;;
59788;SDS011;47353;51.614;5.530;2023-03-14T09:47:04;2.88;;;0.70;;
59788;SDS011;47353;51.614;5.530;2023-03-14T09:49:33;2.63;;;0.80;;
59788;SDS011;47353;51.614;5.530;2023-03-14T09:52:02;4.45;;;0.88;;
59788;SDS011;47353;51.614;5.530;2023-03-14T09:54:42;4.22;;;0.90;;
59788;SDS011;47353;51.614;5.530;2023-03-14T09:57:20;3.15;;;0.88;;
59788;SDS011;47353;51.614;5.530;2023-03-14T09:59:49;6.45;;;1.00;;
59788;SDS011;47353;51.614;5.530;2023-03-14T10:02:18;4.45;;;1.05;;
59788;SDS011;47353;51.614;5.530;2023-03-14T10:04:46;5.20;;;0.90;;
59788;SDS011;47353;51.614;5.530;2023-03-14T10:07:13;5.07;;;1.30;;
59788;SDS011;47353;51.614;5.530;2023-03-14T10:09:42;4.28;;;1.40;;
59788;SDS011;47353;51.614;5.530;2023-03-14T10:12:08;4.38;;;1.10;;
59788;SDS011;47353;51.614;5.530;2023-03-14T10:14:36;3.50;;;0.93;;
59788;SDS011;47353;51.614;5.530;2023-03-14T10:17:12;3.83;;;1.20;;
59788;SDS011;47353;51.614;5.530;2023-03-14T10:19:50;3.72;;;1.65;;
59788;SDS011;47353;51.614;5.530;2023-03-14T10:22:18;5.38;;;1.05;;
59788;SDS011;47353;51.614;5.530;2023-03-14T10:24:45;9.63;;;1.80;;
59788;SDS011;47353;51.614;5.530;2023-03-14T10:27:19;9.95;;;2.08;;
59788;SDS011;47353;51.614;5.530;2023-03-14T10:29:56;7.53;;;1.58;;
59788;SDS011;47353;51.614;5.530;2023-03-14T10:32:34;7.72;;;1.75;;
59788;SDS011;47353;51.614;5.530;2023-03-14T10:35:05;9.18;;;1.70;;
59788;SDS011;47353;51.614;5.530;2023-03-14T10:37:53;7.15;;;1.23;;
59788;SDS011;47353;51.614;5.530;2023-03-14T10:40:30;6.78;;;1.70;;
59788;SDS011;47353;51.614;5.530;2023-03-14T10:42:58;5.88;;;1.30;;
59788;SDS011;47353;51.614;5.530;2023-03-14T10:47:53;7.78;;;1.83;;
59788;SDS011;47353;51.614;5.530;2023-03-14T10:50:22;11.02;;;1.65;;
59788;SDS011;47353;51.614;5.530;2023-03-14T10:52:55;10.73;;;1.77;;
59788;SDS011;47353;51.614;5.530;2023-03-14T10:55:23;10.10;;;2.33;;
59788;SDS011;47353;51.614;5.530;2023-03-14T10:57:50;10.35;;;1.67;;
59788;SDS011;47353;51.614;5.530;2023-03-14T11:00:17;13.88;;;2.20;;
59788;SDS011;47353;51.614;5.530;2023-03-14T11:05:33;14.68;;;2.30;;
59788;SDS011;47353;51.614;5.530;2023-03-14T11:08:01;8.52;;;1.90;;
59788;SDS011;47353;51.614;5.530;2023-03-14T11:10:34;10.93;;;2.35;;
59788;SDS011;47353;51.614;5.530;2023-03-14T11:15:42;15.32;;;2.63;;
59788;SDS011;47353;51.614;5.530;2023-03-14T11:18:35;10.85;;;2.67;;
59788;SDS011;47353;51.614;5.530;2023-03-14T11:21:31;13.15;;;2.13;;
59788;SDS011;47353;51.614;5.530;2023-03-14T11:26:48;5.68;;;1.75;;
59788;SDS011;47353;51.614;5.530;2023-03-14T11:35:24;13.48;;;2.17;;
59788;SDS011;47353;51.614;5.530;2023-03-14T11:40:32;11.88;;;2.58;;
59788;SDS011;47353;51.614;5.530;2023-03-14T11:43:04;13.90;;;2.28;;
59788;SDS011;47353;51.614;5.530;2023-03-14T11:45:35;19.08;;;3.30;;
59788;SDS011;47353;51.614;5.530;2023-03-14T11:50:47;15.93;;;3.55;;
59788;SDS011;47353;51.614;5.530;2023-03-14T11:53:19;19.63;;;3.97;;
59788;SDS011;47353;51.614;5.530;2023-03-14T11:55:45;24.13;;;3.85;;
59788;SDS011;47353;51.614;5.530;2023-03-14T11:58:14;15.02;;;3.30;;
59788;SDS011;47353;51.614;5.530;2023-03-14T12:00:44;16.38;;;3.00;;
59788;SDS011;47353;51.614;5.530;2023-03-14T12:03:17;16.00;;;2.95;;
59788;SDS011;47353;51.614;5.530;2023-03-14T12:08:49;15.70;;;5.25;;
59788;SDS011;47353;51.614;5.530;2023-03-14T12:14:15;18.65;;;7.47;;
59788;SDS011;47353;51.614;5.530;2023-03-14T12:16:43;19.08;;;7.20;;
59788;SDS011;47353;51.614;5.530;2023-03-14T12:19:31;18.83;;;7.18;;
59788;SDS011;47353;51.614;5.530;2023-03-14T12:22:00;22.48;;;8.93;;
59788;SDS011;47353;51.614;5.530;2023-03-14T12:27:41;18.35;;;4.93;;
59788;SDS011;47353;51.614;5.530;2023-03-14T12:30:29;15.35;;;4.70;;
59788;SDS011;47353;51.614;5.530;2023-03-14T12:35:39;14.82;;;4.47;;
59788;SDS011;47353;51.614;5.530;2023-03-14T12:38:10;9.35;;;3.60;;
59788;SDS011;47353;51.614;5.530;2023-03-14T12:43:40;14.68;;;3.17;;
59788;SDS011;47353;51.614;5.530;2023-03-14T12:48:38;11.85;;;2.70;;
59788;SDS011;47353;51.614;5.530;2023-03-14T12:51:11;14.27;;;2.88;;
59788;SDS011;47353;51.614;5.530;2023-03-14T12:59:05;10.48;;;2.10;;
59788;SDS011;47353;51.614;5.530;2023-03-14T13:01:58;14.85;;;2.67;;
59788;SDS011;47353;51.614;5.530;2023-03-14T13:04:27;13.68;;;2.50;;
59788;SDS011;47353;51.614;5.530;2023-03-14T13:06:57;11.85;;;2.30;;
59788;SDS011;47353;51.614;5.530;2023-03-14T13:11:53;11.27;;;2.55;;
59788;SDS011;47353;51.614;5.530;2023-03-14T13:14:19;12.15;;;2.70;;
59788;SDS011;47353;51.614;5.530;2023-03-14T13:16:46;11.60;;;2.20;;
59788;SDS011;47353;51.614;5.530;2023-03-14T13:19:22;8.90;;;1.92;;
59788;SDS011;47353;51.614;5.530;2023-03-14T13:21:51;12.77;;;1.90;;
59788;SDS011;47353;51.614;5.530;2023-03-14T13:24:27;8.13;;;1.90;;
59788;SDS011;47353;51.614;5.530;2023-03-14T13:26:56;10.25;;;1.98;;
59788;SDS011;47353;51.614;5.530;2023-03-14T13:29:24;9.02;;;2.03;;
59788;SDS011;47353;51.614;5.530;2023-03-14T13:32:02;10.07;;;1.88;;
59788;SDS011;47353;51.614;5.530;2023-03-14T13:34:38;9.20;;;1.80;;
59788;SDS011;47353;51.614;5.530;2023-03-14T13:37:04;9.73;;;1.95;;
59788;SDS011;47353;51.614;5.530;2023-03-14T13:39:31;6.95;;;1.52;;
59788;SDS011;47353;51.614;5.530;2023-03-14T13:41:58;9.95;;;1.48;;
59788;SDS011;47353;51.614;5.530;2023-03-14T13:44:27;11.68;;;1.50;;
59788;SDS011;47353;51.614;5.530;2023-03-14T13:46:57;10.63;;;2.30;;
59788;SDS011;47353;51.614;5.530;2023-03-14T13:49:24;7.28;;;1.70;;
59788;SDS011;47353;51.614;5.530;2023-03-14T13:51:51;9.02;;;1.65;;
59788;SDS011;47353;51.614;5.530;2023-03-14T13:54:18;7.95;;;2.15;;
59788;SDS011;47353;51.614;5.530;2023-03-14T13:56:45;6.18;;;1.83;;
59788;SDS011;47353;51.614;5.530;2023-03-14T13:59:27;8.18;;;1.52;;
59788;SDS011;47353;51.614;5.530;2023-03-14T14:01:54;7.28;;;1.95;;
59788;SDS011;47353;51.614;5.530;2023-03-14T14:04:22;7.75;;;2.05;;
59788;SDS011;47353;51.614;5.530;2023-03-14T14:06:52;9.80;;;1.80;;
59788;SDS011;47353;51.614;5.530;2023-03-14T14:09:20;8.80;;;1.60;;
59788;SDS011;47353;51.614;5.530;2023-03-14T14:14:34;6.25;;;1.73;;
59788;SDS011;47353;51.614;5.530;2023-03-14T14:17:08;6.53;;;1.40;;
59788;SDS011;47353;51.614;5.530;2023-03-14T14:19:36;8.68;;;1.52;;
59788;SDS011;47353;51.614;5.530;2023-03-14T14:22:03;5.07;;;1.60;;
59788;SDS011;47353;51.614;5.530;2023-03-14T14:24:30;8.15;;;1.73;;
59788;SDS011;47353;51.614;5.530;2023-03-14T14:27:01;7.57;;;1.75;;
59788;SDS011;47353;51.614;5.530;2023-03-14T14:29:33;8.38;;;1.70;;
59788;SDS011;47353;51.614;5.530;2023-03-14T14:32:00;5.63;;;1.23;;
59788;SDS011;47353;51.614;5.530;2023-03-14T14:35:10;5.20;;;1.48;;
59788;SDS011;47353;51.614;5.530;2023-03-14T14:37:30;6.53;;;1.30;;
59788;SDS011;47353;51.614;5.530;2023-03-14T14:39:59;6.20;;;1.55;;
59788;SDS011;47353;51.614;5.530;2023-03-14T14:42:31;7.07;;;1.35;;
59788;SDS011;47353;51.614;5.530;2023-03-14T14:44:57;7.53;;;1.25;;
59788;SDS011;47353;51.614;5.530;2023-03-14T14:47:25;6.45;;;1.35;;
59788;SDS011;47353;51.614;5.530;2023-03-14T14:49:53;7.72;;;1.40;;
59788;SDS011;47353;51.614;5.530;2023-03-14T14:52:21;8.90;;;1.63;;
59788;SDS011;47353;51.614;5.530;2023-03-14T14:54:59;9.38;;;1.25;;
59788;SDS011;47353;51.614;5.530;2023-03-14T14:57:33;7.85;;;1.52;;
59788;SDS011;47353;51.614;5.530;2023-03-14T15:00:10;9.13;;;1.48;;
59788;SDS011;47353;51.614;5.530;2023-03-14T15:02:45;6.65;;;1.23;;
59788;SDS011;47353;51.614;5.530;2023-03-14T15:05:16;8.05;;;1.60;;
59788;SDS011;47353;51.614;5.530;2023-03-14T15:07:44;8.80;;;1.55;;
59788;SDS011;47353;51.614;5.530;2023-03-14T15:10:10;7.22;;;1.38;;
59788;SDS011;47353;51.614;5.530;2023-03-14T15:12:37;6.75;;;1.40;;
59788;SDS011;47353;51.614;5.530;2023-03-14T15:15:03;7.93;;;1.45;;
59788;SDS011;47353;51.614;5.530;2023-03-14T15:17:28;5.25;;;1.48;;
59788;SDS011;47353;51.614;5.530;2023-03-14T15:19:54;10.18;;;1.80;;
59788;SDS011;47353;51.614;5.530;2023-03-14T15:22:21;8.55;;;2.08;;
59788;SDS011;47353;51.614;5.530;2023-03-14T15:24:46;8.93;;;1.23;;
59788;SDS011;47353;51.614;5.530;2023-03-14T15:27:15;5.47;;;1.13;;
59788;SDS011;47353;51.614;5.530;2023-03-14T15:29:42;8.10;;;1.75;;
59788;SDS011;47353;51.614;5.530;2023-03-14T15:32:13;10.65;;;1.63;;
59788;SDS011;47353;51.614;5.530;2023-03-14T15:34:40;9.23;;;1.80;;
59788;SDS011;47353;51.614;5.530;2023-03-14T15:37:12;7.90;;;1.60;;
59788;SDS011;47353;51.614;5.530;2023-03-14T15:39:40;6.28;;;1.52;;
59788;SDS011;47353;51.614;5.530;2023-03-14T15:42:09;9.98;;;1.50;;
59788;SDS011;47353;51.614;5.530;2023-03-14T15:44:35;7.18;;;1.55;;
59788;SDS011;47353;51.614;5.530;2023-03-14T15:47:00;8.18;;;2.05;;